Time;durP1;ratioP1;P1;durP2;ratioP2;P2;SDS_P1;SDS_P2;PMS_P1;PMS_P2;Temp;Humidity;BMP_temperature;BMP_pressure;BME280_temperature;BME280_humidity;BME280_pressure;Samples;Min_cycle;Max_cycle;Signal;HPM_P1;HPM_P2
2023/10/25 00:00:55;;;;;;;6.03;3.33;;;8.80;99.90;;;;;;5092280;28;20204;-72
2023/10/25 00:03:21;;;;;;;6.10;3.10;;;8.80;99.90;;;;;;5092621;28;20265;-71
2023/10/25 00:05:46;;;;;;;4.23;3.37;;;8.70;99.90;;;;;;5097015;28;20212;-70
2023/10/25 00:08:12;;;;;;;4.10;3.00;;;8.70;99.90;;;;;;5071546;28;20184;-71
2023/10/25 00:10:37;;;;;;;4.30;3.10;;;8.70;99.90;;;;;;5091981;28;20275;-71
2023/10/25 00:13:03;;;;;;;5.13;3.10;;;8.60;99.90;;;;;;5092414;28;20168;-70
2023/10/25 00:15:29;;;;;;;4.23;2.93;;;8.70;99.90;;;;;;5065514;28;20184;-71
2023/10/25 00:17:54;;;;;;;4.07;2.73;;;8.80;99.90;;;;;;5092190;28;20259;-71
2023/10/25 00:20:20;;;;;;;4.60;2.73;;;8.80;99.90;;;;;;5073811;28;20183;-70
2023/10/25 00:22:45;;;;;;;4.70;3.10;;;8.80;99.90;;;;;;5091753;28;20265;-72
2023/10/25 00:25:11;;;;;;;3.80;2.63;;;8.70;99.90;;;;;;5092330;28;20250;-74
2023/10/25 00:27:37;;;;;;;5.30;3.23;;;8.70;99.90;;;;;;5092449;28;20629;-71
2023/10/25 00:30:03;;;;;;;4.83;2.87;;;8.70;99.90;;;;;;5091891;28;20184;-71
2023/10/25 00:32:29;;;;;;;6.20;2.40;;;8.70;99.90;;;;;;5091909;28;20576;-71
2023/10/25 00:34:54;;;;;;;5.00;2.30;;;8.70;99.90;;;;;;5091852;28;20442;-75
2023/10/25 00:37:20;;;;;;;4.20;2.83;;;8.70;99.90;;;;;;5091424;28;20558;-71
2023/10/25 00:39:46;;;;;;;2.43;1.83;;;8.70;99.90;;;;;;5091469;28;20521;-71
2023/10/25 00:42:11;;;;;;;3.30;1.83;;;8.70;99.90;;;;;;5091547;28;20200;-71
2023/10/25 00:44:37;;;;;;;4.00;2.73;;;8.70;99.90;;;;;;5090982;28;20354;-71
2023/10/25 00:47:03;;;;;;;2.90;2.03;;;8.70;99.90;;;;;;5091587;28;20176;-75
2023/10/25 00:49:29;;;;;;;3.47;1.90;;;8.70;99.90;;;;;;5073191;28;20176;-74
2023/10/25 00:51:55;;;;;;;2.17;1.30;;;8.80;99.90;;;;;;5091303;28;20441;-73
2023/10/25 00:54:21;;;;;;;6.53;1.80;;;8.90;99.90;;;;;;5091215;28;20445;-73
2023/10/25 00:56:49;;;;;;;2.57;1.50;;;8.90;99.90;;;;;;5091588;28;20797;-73
2023/10/25 00:59:17;;;;;;;3.00;1.80;;;8.90;99.90;;;;;;5091156;28;20418;-71
2023/10/25 01:01:44;;;;;;;3.53;2.03;;;8.90;99.90;;;;;;5090778;28;20870;-73
2023/10/25 01:04:09;;;;;;;2.43;1.63;;;8.90;99.90;;;;;;5092819;28;20461;-71
2023/10/25 01:06:35;;;;;;;2.83;1.80;;;8.90;99.90;;;;;;5093584;28;20419;-73
2023/10/25 01:09:01;;;;;;;3.47;1.90;;;8.90;99.90;;;;;;5090388;28;20536;-71
2023/10/25 01:11:26;;;;;;;2.27;1.63;;;8.90;99.90;;;;;;5090857;28;20682;-71
2023/10/25 01:13:52;;;;;;;2.67;2.17;;;8.90;99.90;;;;;;5091162;28;20550;-71
2023/10/25 01:16:19;;;;;;;7.90;1.33;;;8.90;99.90;;;;;;5091197;28;20268;-72
2023/10/25 01:18:44;;;;;;;3.40;1.40;;;8.80;99.90;;;;;;5090893;28;20680;-72
2023/10/25 01:21:10;;;;;;;2.47;1.53;;;8.90;99.90;;;;;;5090740;28;20434;-71
2023/10/25 01:23:36;;;;;;;4.23;1.83;;;8.90;99.90;;;;;;5090970;28;20185;-71
2023/10/25 01:26:01;;;;;;;2.43;1.67;;;8.80;99.90;;;;;;5091018;28;20616;-74
2023/10/25 01:28:27;;;;;;;4.50;3.20;;;8.80;99.90;;;;;;5090836;28;20187;-72
2023/10/25 01:30:53;;;;;;;4.80;1.90;;;8.80;99.90;;;;;;5090447;28;20204;-71
2023/10/25 01:33:18;;;;;;;3.50;2.07;;;8.90;99.90;;;;;;5090538;28;20260;-70
2023/10/25 01:35:44;;;;;;;5.30;2.10;;;8.80;99.90;;;;;;5090616;28;20220;-74
2023/10/25 01:38:09;;;;;;;3.90;2.00;;;8.80;99.90;;;;;;5071875;28;20529;-70
2023/10/25 01:40:35;;;;;;;6.13;1.90;;;8.80;99.90;;;;;;5081798;28;20188;-72
2023/10/25 01:43:01;;;;;;;4.20;2.63;;;8.70;99.90;;;;;;5090143;28;20308;-71
2023/10/25 01:45:30;;;;;;;4.37;2.27;;;8.70;99.90;;;;;;5072306;28;20261;-72
2023/10/25 01:47:56;;;;;;;4.10;2.40;;;8.60;99.90;;;;;;5087984;28;20230;-71
2023/10/25 01:50:21;;;;;;;5.13;2.47;;;8.60;99.90;;;;;;5085602;28;20431;-71
2023/10/25 01:52:47;;;;;;;3.40;2.17;;;8.50;99.90;;;;;;5090187;28;20223;-72
2023/10/25 01:55:13;;;;;;;7.83;3.70;;;8.50;99.90;;;;;;5090355;28;20172;-70
2023/10/25 01:57:38;;;;;;;5.70;3.53;;;8.50;99.90;;;;;;5090070;28;20185;-71
2023/10/25 02:00:06;;;;;;;9.47;3.20;;;8.50;99.90;;;;;;5085870;28;20200;-71
2023/10/25 02:02:33;;;;;;;3.60;2.73;;;8.50;99.90;;;;;;5087435;28;20205;-71
2023/10/25 02:04:58;;;;;;;10.87;7.40;;;8.50;99.90;;;;;;5094850;28;20458;-71
2023/10/25 02:07:24;;;;;;;5.93;3.23;;;8.50;99.90;;;;;;5087048;28;20423;-71
2023/10/25 02:09:50;;;;;;;6.00;3.57;;;8.60;99.90;;;;;;5082414;28;20184;-71
2023/10/25 02:12:15;;;;;;;2.80;1.70;;;8.60;99.90;;;;;;5088409;28;20241;-72
2023/10/25 02:14:41;;;;;;;2.93;1.87;;;8.60;99.90;;;;;;5071954;28;20784;-71
2023/10/25 02:17:06;;;;;;;4.00;2.10;;;8.60;99.90;;;;;;5090425;28;20215;-70
2023/10/25 02:19:32;;;;;;;1.67;1.33;;;8.60;99.90;;;;;;5089556;28;20192;-71
2023/10/25 02:21:59;;;;;;;4.30;2.20;;;8.60;99.90;;;;;;5071643;28;20239;-73
2023/10/25 02:24:25;;;;;;;3.90;2.03;;;8.60;99.90;;;;;;5090882;28;20252;-71
2023/10/25 02:26:51;;;;;;;2.93;1.80;;;8.50;99.90;;;;;;5090744;28;20488;-73
2023/10/25 02:29:17;;;;;;;2.87;1.90;;;8.50;99.90;;;;;;5091461;28;20424;-72
2023/10/25 02:31:43;;;;;;;3.27;2.03;;;8.50;99.90;;;;;;5074277;28;20440;-70
2023/10/25 02:34:08;;;;;;;2.90;1.77;;;8.50;99.90;;;;;;5099861;28;20248;-71
2023/10/25 02:36:35;;;;;;;3.43;1.90;;;8.50;99.90;;;;;;5082240;28;20189;-77
2023/10/25 02:39:01;;;;;;;2.73;2.00;;;8.40;99.90;;;;;;5084689;28;20561;-74
2023/10/25 02:41:27;;;;;;;2.80;2.17;;;8.40;99.90;;;;;;5101084;28;20458;-71
2023/10/25 02:43:56;;;;;;;6.07;2.57;;;8.40;99.90;;;;;;5091226;28;20516;-71
2023/10/25 02:46:22;;;;;;;6.13;3.47;;;8.40;99.90;;;;;;5089610;28;20478;-71
2023/10/25 02:48:50;;;;;;;4.07;2.53;;;8.40;99.90;;;;;;5089819;28;20533;-71
2023/10/25 02:51:16;;;;;;;6.50;3.03;;;8.30;99.90;;;;;;5089611;28;21132;-71
2023/10/25 02:53:41;;;;;;;6.70;3.80;;;8.30;99.90;;;;;;5089156;28;20502;-71
2023/10/25 02:56:08;;;;;;;5.23;3.47;;;8.30;99.90;;;;;;5089908;28;20196;-73
2023/10/25 02:58:34;;;;;;;5.77;3.80;;;8.30;99.90;;;;;;5089310;28;20232;-73
2023/10/25 03:01:00;;;;;;;7.23;3.60;;;8.30;99.90;;;;;;5089226;28;20442;-71
2023/10/25 03:03:27;;;;;;;4.13;2.60;;;8.20;99.90;;;;;;5089210;28;20414;-71
2023/10/25 03:05:53;;;;;;;3.70;2.50;;;8.20;99.90;;;;;;5093595;28;20993;-72
2023/10/25 03:08:19;;;;;;;6.43;2.63;;;8.10;99.90;;;;;;5071421;28;20414;-74
2023/10/25 03:10:44;;;;;;;5.27;2.60;;;8.10;99.90;;;;;;5088860;28;20191;-70
2023/10/25 03:13:10;;;;;;;2.63;1.83;;;8.10;99.90;;;;;;5089682;28;20184;-71
2023/10/25 03:15:35;;;;;;;13.40;3.10;;;8.00;99.90;;;;;;5089212;28;20188;-73
2023/10/25 03:18:02;;;;;;;2.60;1.77;;;8.00;99.90;;;;;;5089190;28;20181;-73
2023/10/25 03:20:28;;;;;;;7.37;2.60;;;8.00;99.90;;;;;;5089053;28;20642;-71
2023/10/25 03:22:54;;;;;;;7.73;2.03;;;8.00;99.90;;;;;;5085854;28;20437;-73
2023/10/25 03:25:20;;;;;;;3.30;2.10;;;8.00;99.90;;;;;;5086502;28;20999;-70
2023/10/25 03:27:46;;;;;;;2.10;1.80;;;8.00;99.90;;;;;;5089109;28;20255;-74
2023/10/25 03:30:12;;;;;;;3.93;2.20;;;8.00;99.90;;;;;;5089020;28;20181;-71
2023/10/25 03:32:37;;;;;;;2.20;1.47;;;8.00;99.90;;;;;;5089386;28;20446;-73
2023/10/25 03:35:04;;;;;;;3.03;1.50;;;8.00;99.90;;;;;;5093095;28;20234;-71
2023/10/25 03:37:30;;;;;;;5.50;2.30;;;8.00;99.90;;;;;;5074332;28;20572;-71
2023/10/25 03:39:55;;;;;;;2.90;1.83;;;7.90;99.90;;;;;;5089411;28;20423;-74
2023/10/25 03:42:21;;;;;;;1.87;1.30;;;7.80;99.90;;;;;;5088329;28;20204;-70
2023/10/25 03:44:46;;;;;;;2.90;1.27;;;7.80;99.90;;;;;;5092319;28;20235;-73
2023/10/25 03:47:12;;;;;;;2.13;1.57;;;7.80;99.90;;;;;;5082842;28;20208;-70
2023/10/25 03:49:38;;;;;;;2.93;1.67;;;7.90;99.90;;;;;;5083345;28;20172;-72
2023/10/25 03:52:03;;;;;;;3.53;2.10;;;7.90;99.90;;;;;;5088076;28;20273;-70
2023/10/25 03:54:30;;;;;;;2.50;1.33;;;7.90;99.90;;;;;;5092477;28;20191;-71
2023/10/25 03:56:56;;;;;;;2.83;2.10;;;8.00;99.90;;;;;;5074384;28;20184;-74
2023/10/25 03:59:22;;;;;;;3.00;1.50;;;8.00;99.90;;;;;;5092371;28;20428;-73
2023/10/25 04:01:47;;;;;;;2.07;1.20;;;8.00;99.90;;;;;;5090709;28;20441;-71
2023/10/25 04:04:13;;;;;;;2.30;1.53;;;7.90;99.90;;;;;;5080087;28;20213;-71
2023/10/25 04:06:38;;;;;;;2.27;1.80;;;7.80;99.90;;;;;;5078371;28;20199;-71
2023/10/25 04:09:04;;;;;;;1.90;1.07;;;7.70;99.90;;;;;;5092289;28;20181;-71
2023/10/25 04:11:30;;;;;;;2.57;1.73;;;7.60;99.90;;;;;;5083540;28;20231;-70
2023/10/25 04:13:55;;;;;;;4.00;1.53;;;7.60;99.90;;;;;;5084069;28;20180;-75
2023/10/25 04:16:21;;;;;;;3.20;2.20;;;7.60;99.90;;;;;;5073997;28;20708;-71
2023/10/25 04:18:46;;;;;;;2.63;1.67;;;7.50;99.90;;;;;;5090926;28;20188;-74
2023/10/25 04:21:13;;;;;;;5.50;2.60;;;7.40;99.90;;;;;;5091918;28;20673;-71
2023/10/25 04:23:39;;;;;;;5.23;2.43;;;9.00;99.90;;;;;;5090926;28;20183;-70
2023/10/25 04:26:06;;;;;;;3.53;1.70;;;7.30;99.90;;;;;;5089385;28;20553;-71
2023/10/25 04:28:32;;;;;;;2.80;1.90;;;7.30;99.90;;;;;;5087135;28;21271;-69
2023/10/25 04:30:58;;;;;;;5.80;3.53;;;7.30;99.90;;;;;;5092395;28;20436;-70
2023/10/25 04:33:24;;;;;;;3.93;2.77;;;7.30;99.90;;;;;;5091675;28;20657;-70
2023/10/25 04:35:49;;;;;;;3.77;2.20;;;7.30;99.90;;;;;;5091965;28;20238;-72
2023/10/25 04:38:15;;;;;;;5.80;2.70;;;7.30;99.90;;;;;;5090907;28;20661;-70
2023/10/25 04:40:40;;;;;;;7.33;1.83;;;7.20;99.90;;;;;;5091697;28;20216;-71
2023/10/25 04:43:06;;;;;;;4.47;2.73;;;7.20;99.90;;;;;;5091332;28;20216;-71
2023/10/25 04:45:34;;;;;;;5.93;2.10;;;7.70;99.90;;;;;;5091419;28;20208;-69
2023/10/25 04:48:00;;;;;;;4.80;3.20;;;7.10;99.90;;;;;;5091683;28;20184;-72
2023/10/25 04:50:25;;;;;;;5.10;2.80;;;7.10;99.90;;;;;;5091570;28;20425;-75
2023/10/25 04:52:51;;;;;;;5.77;2.93;;;7.10;99.90;;;;;;5091257;28;20572;-71
2023/10/25 04:55:17;;;;;;;5.00;2.50;;;7.10;99.90;;;;;;5091759;28;20183;-70
2023/10/25 04:57:43;;;;;;;4.20;2.87;;;7.00;99.90;;;;;;5091060;28;20594;-71
2023/10/25 05:00:12;;;;;;;3.13;2.30;;;6.90;99.90;;;;;;5091066;28;20192;-71
2023/10/25 05:02:38;;;;;;;4.53;3.27;;;6.90;99.90;;;;;;5090657;28;20200;-73
2023/10/25 05:05:08;;;;;;;5.40;3.63;;;6.90;99.90;;;;;;5095977;28;20528;-71
2023/10/25 05:07:36;;;;;;;6.37;3.70;;;5.60;99.90;;;;;;5084107;28;20459;-74
2023/10/25 05:10:06;;;;;;;5.60;3.80;;;7.00;99.90;;;;;;5081104;28;20452;-74
2023/10/25 05:12:42;;;;;;;4.50;2.97;;;6.90;99.90;;;;;;5079197;28;20447;-71
2023/10/25 05:15:09;;;;;;;4.10;3.10;;;7.00;99.90;;;;;;5087089;28;20963;-74
2023/10/25 05:17:36;;;;;;;5.90;3.00;;;6.90;99.90;;;;;;5080363;28;20434;-70
2023/10/25 05:20:05;;;;;;;5.97;2.80;;;6.90;99.90;;;;;;5078652;28;20438;-71
2023/10/25 05:22:37;;;;;;;3.10;2.17;;;6.90;99.90;;;;;;5080051;28;20446;-73
2023/10/25 05:25:04;;;;;;;2.97;2.10;;;6.90;99.90;;;;;;5059986;28;20501;-74
2023/10/25 05:27:30;;;;;;;4.43;2.63;;;6.80;99.90;;;;;;5061447;28;20441;-75
2023/10/25 05:29:59;;;;;;;4.27;2.77;;;6.80;99.90;;;;;;5080168;28;20430;-72
2023/10/25 05:32:28;;;;;;;3.97;2.20;;;6.70;99.90;;;;;;5079359;28;20541;-75
2023/10/25 05:34:54;;;;;;;4.23;2.70;;;6.70;99.90;;;;;;5062254;28;20463;-71
2023/10/25 05:37:20;;;;;;;5.50;2.63;;;6.60;99.90;;;;;;5079529;28;20426;-72
2023/10/25 05:39:46;;;;;;;3.10;1.80;;;6.60;99.90;;;;;;5078644;28;20245;-73
2023/10/25 05:42:18;;;;;;;4.83;3.03;;;6.60;99.90;;;;;;5078645;28;20519;-74
2023/10/25 05:44:44;;;;;;;3.57;2.30;;;6.60;99.90;;;;;;5076940;28;20607;-72
2023/10/25 05:47:09;;;;;;;4.17;2.47;;;6.50;99.90;;;;;;5078075;28;20479;-74
2023/10/25 05:49:35;;;;;;;4.90;3.03;;;6.60;99.90;;;;;;5078981;28;20826;-71
2023/10/25 05:52:01;;;;;;;7.20;3.87;;;6.50;99.90;;;;;;5077541;28;20819;-71
2023/10/25 05:54:27;;;;;;;7.13;4.83;;;6.50;99.90;;;;;;5079309;28;20982;-73
2023/10/25 05:56:54;;;;;;;10.00;5.60;;;6.50;99.90;;;;;;5078070;28;20188;-73
2023/10/25 05:59:19;;;;;;;8.33;5.20;;;6.50;99.90;;;;;;5077969;28;20236;-71
2023/10/25 06:01:50;;;;;;;9.77;5.17;;;6.60;99.90;;;;;;5078726;28;20853;-70
2023/10/25 06:04:17;;;;;;;9.43;5.30;;;6.60;99.90;;;;;;5079553;28;20479;-72
2023/10/25 06:06:44;;;;;;;8.93;4.77;;;6.70;99.90;;;;;;5077616;28;20495;-71
2023/10/25 06:09:11;;;;;;;9.97;5.10;;;6.70;99.90;;;;;;5078924;28;20426;-73
2023/10/25 06:11:38;;;;;;;10.63;4.87;;;6.70;99.90;;;;;;5078905;28;20446;-71
2023/10/25 06:14:04;;;;;;;10.47;4.57;;;6.80;99.90;;;;;;5078835;28;20434;-72
2023/10/25 06:16:30;;;;;;;9.47;4.70;;;6.80;99.90;;;;;;5079036;28;20430;-72
2023/10/25 06:18:56;;;;;;;8.07;3.77;;;6.70;99.90;;;;;;5077565;28;20431;-72
2023/10/25 06:21:22;;;;;;;18.90;5.93;;;6.70;99.90;;;;;;5078741;28;20471;-71
2023/10/25 06:23:47;;;;;;;10.83;5.50;;;6.80;99.90;;;;;;5079378;28;20255;-70
2023/10/25 06:26:13;;;;;;;7.53;4.53;;;6.70;99.90;;;;;;5079406;28;20258;-69
2023/10/25 06:28:38;;;;;;;9.50;5.00;;;6.70;99.90;;;;;;5078882;28;20176;-70
2023/10/25 06:31:05;;;;;;;9.30;4.70;;;6.70;99.90;;;;;;5078181;28;20207;-73
2023/10/25 06:33:31;;;;;;;13.03;5.87;;;6.60;99.90;;;;;;5077986;28;20191;-74
2023/10/25 06:36:00;;;;;;;13.33;5.77;;;6.60;99.90;;;;;;5079703;28;20426;-71
2023/10/25 06:38:26;;;;;;;13.20;7.20;;;6.50;99.90;;;;;;5079170;28;20184;-72
2023/10/25 06:40:52;;;;;;;11.00;5.77;;;6.50;99.90;;;;;;5077411;28;20477;-71
2023/10/25 06:43:18;;;;;;;10.90;5.57;;;6.60;99.90;;;;;;5079368;28;20454;-69
2023/10/25 06:45:46;;;;;;;8.23;4.67;;;6.50;99.90;;;;;;5075199;28;20490;-70
2023/10/25 06:48:12;;;;;;;10.87;5.87;;;6.50;99.90;;;;;;5063967;28;20192;-70
2023/10/25 06:50:38;;;;;;;7.47;5.00;;;6.70;99.90;;;;;;5075312;28;20446;-71
2023/10/25 06:53:04;;;;;;;11.00;5.23;;;6.70;99.90;;;;;;5074261;28;20191;-69
2023/10/25 06:55:29;;;;;;;11.53;6.00;;;6.80;99.90;;;;;;5076870;28;20282;-70
2023/10/25 06:57:55;;;;;;;11.20;5.50;;;6.80;99.90;;;;;;5075456;28;20430;-69
2023/10/25 07:00:22;;;;;;;10.30;6.17;;;6.90;99.90;;;;;;5075124;28;20375;-69
2023/10/25 07:02:52;;;;;;;6.20;3.43;;;6.90;99.90;;;;;;5071143;28;20208;-71
2023/10/25 07:05:21;;;;;;;5.27;3.67;;;6.90;99.90;;;;;;5065169;28;20881;-71
2023/10/25 07:07:52;;;;;;;5.10;2.97;;;7.00;99.90;;;;;;5051466;28;20503;-71
2023/10/25 07:10:18;;;;;;;6.20;3.13;;;7.20;99.90;;;;;;5076026;28;20467;-72
2023/10/25 07:12:45;;;;;;;4.33;2.67;;;7.30;99.90;;;;;;5078820;28;20454;-71
2023/10/25 07:15:11;;;;;;;4.13;2.50;;;7.40;99.90;;;;;;5079477;28;20979;-69
2023/10/25 07:17:38;;;;;;;6.77;2.77;;;7.60;99.90;;;;;;5078647;28;20469;-69
2023/10/25 07:20:10;;;;;;;4.00;3.00;;;7.70;99.90;;;;;;5081024;28;21023;-71
2023/10/25 07:22:35;;;;;;;4.20;2.60;;;7.90;99.90;;;;;;5074074;28;20454;-70
2023/10/25 07:25:01;;;;;;;4.57;2.27;;;8.10;99.90;;;;;;5084246;28;20997;-69
2023/10/25 07:27:27;;;;;;;4.60;3.10;;;8.30;99.90;;;;;;5088277;28;20185;-79
2023/10/25 07:29:53;;;;;;;6.20;2.30;;;8.60;99.90;;;;;;5100994;28;20453;-79
2023/10/25 07:32:18;;;;;;;6.87;2.10;;;8.90;99.90;;;;;;5098436;28;20209;-79
2023/10/25 07:34:44;;;;;;;2.40;1.70;;;9.20;99.90;;;;;;5110875;28;20197;-79
2023/10/25 07:37:10;;;;;;;6.57;2.90;;;9.50;99.90;;;;;;5098633;28;20185;-71
2023/10/25 07:39:35;;;;;;;3.80;2.10;;;9.90;99.90;;;;;;5078462;28;20192;-70
2023/10/25 07:42:01;;;;;;;3.83;2.33;;;10.20;99.90;;;;;;5083363;28;20707;-73
2023/10/25 07:44:30;;;;;;;4.47;2.20;;;10.40;99.90;;;;;;5067537;28;20778;-70
2023/10/25 07:46:55;;;;;;;2.40;1.40;;;10.50;99.90;;;;;;5063859;28;20215;-72
2023/10/25 07:49:21;;;;;;;3.17;1.60;;;10.40;99.90;;;;;;5063178;28;20558;-70
2023/10/25 07:51:47;;;;;;;3.10;1.90;;;10.30;99.90;;;;;;5062732;28;20213;-71
2023/10/25 07:54:12;;;;;;;2.80;1.73;;;10.10;99.90;;;;;;5063564;28;20190;-69
2023/10/25 07:56:38;;;;;;;5.97;2.07;;;10.00;99.90;;;;;;5064183;28;20189;-71
2023/10/25 07:59:03;;;;;;;4.87;1.80;;;9.90;99.90;;;;;;5065476;28;20185;-73
2023/10/25 08:01:29;;;;;;;3.43;2.00;;;10.00;99.90;;;;;;5063885;28;20666;-71
2023/10/25 08:03:55;;;;;;;4.70;2.30;;;10.10;99.90;;;;;;5063574;28;20204;-72
2023/10/25 08:06:21;;;;;;;4.20;2.20;;;10.10;99.90;;;;;;5062306;28;20227;-70
2023/10/25 08:08:49;;;;;;;2.60;1.43;;;10.10;99.90;;;;;;5063109;28;20196;-72
2023/10/25 08:11:15;;;;;;;3.90;1.67;;;10.20;99.90;;;;;;5062904;28;20957;-70
2023/10/25 08:13:42;;;;;;;4.20;1.73;;;10.20;99.90;;;;;;5061724;28;20435;-72
2023/10/25 08:16:08;;;;;;;2.03;1.40;;;10.30;99.90;;;;;;5044542;28;20441;-70
2023/10/25 08:18:35;;;;;;;3.63;1.97;;;10.20;99.90;;;;;;5061177;28;20446;-70
2023/10/25 08:21:01;;;;;;;3.67;2.20;;;10.40;99.90;;;;;;5063133;28;20459;-71
2023/10/25 08:23:27;;;;;;;2.80;1.77;;;10.60;99.90;;;;;;5061783;28;20432;-70
2023/10/25 08:25:52;;;;;;;2.50;1.70;;;10.70;99.90;;;;;;5063707;28;20502;-70
2023/10/25 08:28:18;;;;;;;2.90;1.70;;;10.70;99.90;;;;;;5060679;28;20463;-70
2023/10/25 08:30:44;;;;;;;2.20;1.53;;;10.60;99.90;;;;;;5061993;28;20189;-71
2023/10/25 08:33:10;;;;;;;1.80;1.30;;;10.60;99.90;;;;;;5061819;28;20201;-73
2023/10/25 08:35:39;;;;;;;2.27;1.33;;;10.70;99.90;;;;;;5061842;28;20181;-72
2023/10/25 08:38:05;;;;;;;3.17;1.40;;;10.70;99.90;;;;;;5043952;28;20432;-72
2023/10/25 08:40:34;;;;;;;2.37;1.60;;;10.70;99.90;;;;;;5061787;28;20561;-73
2023/10/25 08:43:01;;;;;;;3.17;1.87;;;10.60;99.90;;;;;;5064395;28;20191;-72
2023/10/25 08:45:34;;;;;;;5.90;1.77;;;10.60;99.90;;;;;;5075155;28;20882;-71
2023/10/25 08:48:04;;;;;;;2.70;1.30;;;10.70;99.90;;;;;;5071933;28;20470;-73
2023/10/25 08:50:32;;;;;;;1.83;1.20;;;10.70;99.90;;;;;;5074749;28;20437;-72
2023/10/25 08:52:59;;;;;;;2.33;1.30;;;10.70;99.90;;;;;;5084528;28;20968;-70
2023/10/25 08:55:25;;;;;;;2.07;1.10;;;10.80;99.90;;;;;;5082242;28;20861;-73
2023/10/25 08:57:55;;;;;;;1.90;1.20;;;10.70;99.90;;;;;;5081921;28;20426;-74
2023/10/25 09:00:22;;;;;;;2.50;1.50;;;10.70;99.90;;;;;;5074403;28;20193;-72
2023/10/25 09:02:49;;;;;;;1.87;1.10;;;10.70;99.90;;;;;;5077502;28;21101;-71
2023/10/25 09:05:14;;;;;;;4.30;1.27;;;10.70;99.90;;;;;;5071521;28;20559;-71
2023/10/25 09:07:40;;;;;;;3.20;1.80;;;10.80;99.90;;;;;;5077327;28;20867;-71
2023/10/25 09:10:15;;;;;;;4.20;2.30;;;10.70;99.90;;;;;;5072995;28;20188;-72
2023/10/25 09:12:41;;;;;;;5.33;1.30;;;10.70;99.90;;;;;;5067085;28;20686;-74
2023/10/25 09:15:07;;;;;;;2.17;1.47;;;10.70;99.90;;;;;;5060310;28;20947;-71
2023/10/25 09:17:34;;;;;;;2.60;1.67;;;10.60;99.90;;;;;;5076929;28;20226;-74
2023/10/25 09:19:59;;;;;;;2.43;1.47;;;10.70;99.90;;;;;;5070052;28;20961;-73
2023/10/25 09:22:30;;;;;;;2.20;1.33;;;10.70;99.90;;;;;;5079330;28;20454;-72
2023/10/25 09:25:00;;;;;;;2.77;1.73;;;10.70;99.90;;;;;;5072411;28;20207;-71
2023/10/25 09:27:26;;;;;;;2.37;1.50;;;10.70;99.90;;;;;;5073780;28;20514;-70
2023/10/25 09:29:54;;;;;;;2.40;1.43;;;10.80;99.90;;;;;;5069109;28;20806;-72
2023/10/25 09:32:21;;;;;;;3.30;1.50;;;10.90;99.90;;;;;;5078141;28;20541;-72
2023/10/25 09:34:48;;;;;;;5.10;2.17;;;11.00;99.90;;;;;;5071873;28;20446;-69
2023/10/25 09:37:14;;;;;;;2.63;1.50;;;11.00;99.90;;;;;;5079668;28;20813;-73
2023/10/25 09:39:40;;;;;;;4.43;1.20;;;11.00;99.90;;;;;;5071342;28;20525;-75
2023/10/25 09:42:11;;;;;;;2.37;1.40;;;11.20;99.90;;;;;;5082135;28;20450;-74
2023/10/25 09:44:51;;;;;;;2.43;1.40;;;11.40;99.90;;;;;;5066723;28;20491;-71
2023/10/25 09:47:18;;;;;;;2.30;1.60;;;11.70;99.90;;;;;;5061193;28;20490;-70
2023/10/25 09:49:48;;;;;;;2.60;1.40;;;11.90;99.90;;;;;;5062787;28;20436;-70
2023/10/25 09:52:25;;;;;;;3.60;1.40;;;12.30;99.90;;;;;;5061368;28;20891;-71
2023/10/25 09:54:59;;;;;;;2.17;1.33;;;12.70;99.90;;;;;;5063499;28;20935;-70
2023/10/25 09:57:28;;;;;;;1.90;1.10;;;12.90;99.90;;;;;;5062030;28;20442;-71
2023/10/25 09:59:56;;;;;;;3.20;1.50;;;13.10;99.90;;;;;;5063706;28;20427;-75
2023/10/25 10:02:46;;;;;;;2.73;1.00;;;13.20;99.90;;;;;;5062112;28;20979;-71
2023/10/25 10:05:15;;;;;;;1.60;0.97;;;13.10;99.90;;;;;;5060804;28;20459;-71
2023/10/25 10:07:44;;;;;;;1.63;0.90;;;13.20;99.90;;;;;;5062205;28;20919;-71
2023/10/25 10:10:31;;;;;;;3.83;1.53;;;13.00;99.90;;;;;;5064174;28;20427;-70
2023/10/25 10:12:57;;;;;;;2.73;1.57;;;13.00;99.90;;;;;;5063208;28;20454;-70
2023/10/25 10:16:05;;;;;;;2.97;1.23;;;12.80;99.90;;;;;;5061529;28;20442;-73
2023/10/25 10:18:33;;;;;;;2.00;1.10;;;12.70;99.90;;;;;;5058122;28;20192;-70
2023/10/25 10:21:09;;;;;;;1.47;0.60;;;12.60;99.90;;;;;;5059727;28;20538;-70
2023/10/25 10:23:39;;;;;;;1.60;0.80;;;12.80;99.90;;;;;;5044537;28;20434;-68
2023/10/25 10:26:06;;;;;;;1.67;0.73;;;12.70;99.90;;;;;;5041002;28;20471;-70
2023/10/25 10:28:47;;;;;;;1.33;0.70;;;12.70;99.90;;;;;;5061194;28;20431;-70
2023/10/25 10:31:14;;;;;;;2.70;0.83;;;12.70;99.90;;;;;;5060266;28;20465;-73
2023/10/25 10:33:48;;;;;;;1.70;0.83;;;12.80;99.90;;;;;;5060419;28;20428;-71
2023/10/25 10:36:24;;;;;;;1.90;0.97;;;12.90;99.90;;;;;;5059472;28;20439;-73
2023/10/25 10:39:18;;;;;;;1.40;0.70;;;12.90;99.90;;;;;;5059285;28;20438;-70
2023/10/25 10:41:45;;;;;;;1.93;0.97;;;13.00;99.90;;;;;;5052327;28;20477;-71
2023/10/25 10:44:13;;;;;;;2.50;1.40;;;13.00;99.90;;;;;;5059963;28;20890;-70
2023/10/25 10:46:53;;;;;;;2.20;1.00;;;13.00;99.90;;;;;;5058606;28;20485;-71
2023/10/25 10:49:20;;;;;;;1.30;0.73;;;13.00;99.90;;;;;;5059649;28;20435;-70
2023/10/25 10:51:47;;;;;;;1.40;0.80;;;12.90;99.90;;;;;;5060591;28;20947;-71
2023/10/25 10:54:13;;;;;;;3.90;1.17;;;12.90;99.90;;;;;;5058199;28;20476;-70
2023/10/25 10:56:38;;;;;;;1.67;0.70;;;12.80;99.90;;;;;;5058973;28;20448;-70
2023/10/25 10:59:06;;;;;;;1.30;0.70;;;12.80;99.90;;;;;;5061359;28;20213;-71
2023/10/25 11:01:32;;;;;;;1.87;0.97;;;12.80;99.90;;;;;;5061471;28;20249;-71
2023/10/25 11:03:58;;;;;;;1.97;0.80;;;12.80;99.90;;;;;;5059242;28;20799;-74
2023/10/25 11:06:25;;;;;;;2.00;1.00;;;12.80;99.90;;;;;;5059365;28;20991;-74
2023/10/25 11:08:51;;;;;;;2.27;0.77;;;12.90;99.90;;;;;;5058215;28;20975;-71
2023/10/25 11:11:20;;;;;;;1.30;0.70;;;12.90;99.90;;;;;;5060369;28;20454;-75
2023/10/25 11:13:48;;;;;;;2.17;1.00;;;13.00;99.90;;;;;;5059903;28;20923;-76
2023/10/25 11:16:14;;;;;;;1.53;0.87;;;13.10;99.90;;;;;;5061181;28;20457;-74
2023/10/25 11:18:39;;;;;;;1.80;1.10;;;13.30;99.90;;;;;;5060068;28;20442;-73
2023/10/25 11:21:05;;;;;;;2.27;0.90;;;13.40;99.90;;;;;;5061549;28;20228;-73
2023/10/25 11:23:31;;;;;;;2.50;1.17;;;13.50;99.90;;;;;;5060747;28;20278;-71
2023/10/25 11:25:56;;;;;;;1.80;0.67;;;13.60;99.90;;;;;;5063510;28;20358;-74
2023/10/25 11:28:24;;;;;;;1.20;0.60;;;13.70;99.90;;;;;;5069547;28;20177;-73
2023/10/25 11:30:50;;;;;;;1.47;0.70;;;13.90;99.90;;;;;;5068067;28;20695;-74
2023/10/25 11:33:16;;;;;;;2.33;1.10;;;14.00;99.90;;;;;;5064835;28;20489;-72
2023/10/25 11:35:43;;;;;;;3.07;0.70;;;14.00;99.90;;;;;;5081264;28;20429;-80
2023/10/25 11:38:11;;;;;;;1.40;0.60;;;14.00;99.90;;;;;;5087062;28;20441;-80
2023/10/25 11:40:43;;;;;;;4.07;1.17;;;14.20;99.90;;;;;;5085632;28;20454;-79
2023/10/25 11:43:10;;;;;;;1.70;0.80;;;14.30;99.90;;;;;;5089070;28;20483;-79
2023/10/25 11:45:38;;;;;;;2.13;0.77;;;14.60;99.90;;;;;;5104731;28;20485;-73
2023/10/25 11:48:05;;;;;;;1.63;0.70;;;14.90;99.90;;;;;;5072459;28;20442;-71
2023/10/25 11:50:31;;;;;;;1.83;0.70;;;14.90;99.90;;;;;;5081032;28;20434;-74
2023/10/25 11:53:00;;;;;;;8.10;0.80;;;14.80;99.90;;;;;;5078771;28;21031;-73
2023/10/25 11:55:27;;;;;;;2.33;1.07;;;14.70;99.90;;;;;;5083707;28;20200;-73
2023/10/25 11:57:53;;;;;;;2.13;0.80;;;14.50;99.90;;;;;;5065540;28;20460;-72
2023/10/25 12:00:19;;;;;;;1.80;0.70;;;14.50;99.90;;;;;;5082223;28;20426;-72
2023/10/25 12:02:45;;;;;;;1.57;0.50;;;14.40;99.90;;;;;;5083258;28;20525;-71
2023/10/25 12:05:11;;;;;;;2.50;0.80;;;14.40;99.90;;;;;;5084873;28;20577;-70
2023/10/25 12:07:37;;;;;;;2.00;0.80;;;14.40;99.90;;;;;;5084419;28;20212;-72
2023/10/25 12:10:06;;;;;;;1.30;0.60;;;14.50;99.90;;;;;;5086593;28;20488;-72
2023/10/25 12:12:32;;;;;;;1.97;0.63;;;14.50;99.90;;;;;;5087784;28;20697;-74
2023/10/25 12:14:58;;;;;;;6.60;1.00;;;14.60;99.90;;;;;;5085348;28;20426;-77
2023/10/25 12:17:24;;;;;;;1.83;0.77;;;14.70;99.90;;;;;;5095772;28;20431;-80
2023/10/25 12:19:50;;;;;;;1.47;0.73;;;14.60;99.90;;;;;;5109389;28;20186;-79
2023/10/25 12:22:18;;;;;;;1.20;0.50;;;14.60;99.90;;;;;;5111904;28;20646;-79
2023/10/25 12:24:46;;;;;;;1.63;0.70;;;14.50;99.90;;;;;;5085305;28;20443;-80
2023/10/25 12:27:12;;;;;;;1.20;0.50;;;14.50;99.90;;;;;;5093253;28;20453;-78
2023/10/25 12:29:38;;;;;;;1.53;0.77;;;14.30;99.90;;;;;;5089157;28;20434;-71
2023/10/25 12:32:04;;;;;;;1.60;0.60;;;14.30;99.90;;;;;;5082699;28;20793;-71
2023/10/25 12:34:30;;;;;;;9.90;0.60;;;14.30;99.90;;;;;;5083662;28;20477;-72
2023/10/25 12:36:56;;;;;;;1.60;0.60;;;14.10;99.90;;;;;;5083152;28;20944;-71
2023/10/25 12:39:22;;;;;;;1.37;0.60;;;14.10;99.90;;;;;;5081548;28;20184;-72
2023/10/25 12:41:47;;;;;;;1.73;0.70;;;14.10;99.90;;;;;;5080803;28;20386;-73
2023/10/25 12:44:13;;;;;;;1.30;0.50;;;14.10;99.90;;;;;;5077262;28;20253;-72
2023/10/25 12:46:39;;;;;;;1.40;0.67;;;14.10;99.90;;;;;;5073673;28;20182;-72
2023/10/25 12:49:06;;;;;;;1.30;0.60;;;14.00;99.90;;;;;;5077390;28;20953;-71
2023/10/25 12:51:31;;;;;;;1.53;0.80;;;14.10;99.90;;;;;;5074064;28;20452;-71